AirNav   Bose Proflight or Bose A20?
 
 1008 users online  

65J Wrens Memorial Airport
Wrens, Georgia, USA

GOING TO WRENS?


FAA INFORMATION EFFECTIVE 23 MAY 2019

Location

FAA Identifier: 65J
Lat/Long: 33-13-22.0000N / 082-23-04.2000W
33-13.366667N / 082-23.070000W
33.2227778 / -82.3845000
(estimated)
Elevation: 450 ft. / 137 m (estimated)
Variation: 03W (1985)
From city: 1 mile N of WRENS, GA
Time zone: UTC -4 (UTC -5 during Standard Time)
Zip code: 30833

Airport Operations

Airport use: Open to the public
Activation date: 10/1967
Control tower: no
ARTCC: ATLANTA CENTER
FSS: MACON FLIGHT SERVICE STATION
NOTAMs facility: MCN (NOTAM-D service available)
Attendance: UNATNDD
Wind indicator: lighted
Segmented circle: yes
Lights: ACTVT MIRL RY 11/29 - CTAF.
Beacon: white-green (lighted land airport)
ROTG BCN OTS INDEFLY. Operates sunset to sunrise.

Airport Communications

CTAF/UNICOM: 122.7
WX AWOS-3PT at 2J3 (14 nm S): 119.35 (478-625-8303)
WX AWOS-3 at HQU (20 nm N): 120.625 (706-597-9801)

Nearby radio navigation aids

VOR radial/distance  VOR name  Freq  Var
IRQr205/31.1COLLIERS VORTAC113.9004W

 
NDB name  Hdg/Dist  Freq  Var  ID
EMORY237/24.238504WEMR . -- .-.
EMANUEL COUNTY012/33.630906WEEX . . -..-
CULVR088/39.238004WUMB ..- -- -...
WASHINGTON/WILKES COUNTY150/39.543503WIIY .. .. -.--

Airport Services

Parking: tiedowns
Airframe service: NONE
Powerplant service: NONE
Bottled oxygen: NONE
Bulk oxygen: NONE

Runway Information

Runway 11/29

Dimensions: 3000 x 50 ft. / 914 x 15 m
Surface: asphalt, in good condition
Weight bearing capacity: 
Single wheel: 20.0
Runway edge lights: medium intensity
RUNWAY 11  RUNWAY 29
Latitude: 33-13.440667N33-13.292000N
Longitude: 082-23.350667W082-22.789167W
Traffic pattern: leftleft
Markings: basic, in good conditionbasic, in good condition
Obstructions: 5 ft. gnd, 201 ft. from runway, 120 ft. right of centerline
3-5FT GROUND, 120FT R, 0-200FT FROM RY END.
12 ft. road, 440 ft. from runway, 145 ft. right of centerline, 20:1 slope to clear
SLOPE IS 34:1 TO THLD. ROAD 440' FROM E.O.R.

Airport Ownership and Management from official FAA records

Ownership: Publicly-owned
Owner: CITY OF WRENS
CITY HALL, PO BOX 125
WRENS, GA 30833
Phone 706-547-3000
Manager: ARTIE THRIFT
CITY HALL, PO BOX 125
WRENS, GA 30833
Phone 706-547-3000
CITY ADMINISTRATOR

Airport Operational Statistics

Aircraft based on the field: 7
Single engine airplanes: 6
Helicopters: 1
    
Aircraft operations: avg 38/week *
60% local general aviation
40% transient general aviation
* for 12-month period ending 31 December 2017

Additional Remarks

FOR CD CTC AUGUSTA APCH AT 706-771-1777.

Instrument Procedures

There are no published instrument procedures at 65J.

Some nearby airports with instrument procedures:

2J3 - Louisville Municipal Airport (14 nm S)
KHQU - Thomson-McDuffie County Airport (20 nm N)
KBXG - Burke County Airport (22 nm SE)
KDNL - Daniel Field Airport (23 nm NE)
KAGS - Augusta Regional Airport at Bush Field (23 nm NE)
 
Loc | Ops | Rwys | IFR | FBO | Links
Com | Nav | Svcs | Stats | Notes
Area around 65J (Wrens Memorial Airport)
 
Road maps at: MapQuest Bing Google
 
Aerial photo
WARNING: Photo may not be current or correct
Aerial photo of 65J (Wrens Memorial Airport)
Photo by Steven Amster
Photo taken 18-Feb-2013
looking north from 2200 ft MSL (1750 ft AGL) from his Cessna 172S.

Do you have a better or more recent aerial photo of Wrens Memorial Airport that you would like to share? If so, please send us your photo.

 
Sectional chart

 
Airport distance calculator
Flying to Wrens Memorial Airport? Find the distance to fly.

From to 65J

Sunrise and sunset
Times for 17-Jun-2019
 Local
(UTC-4)
 Zulu
(UTC)
Morning civil twilight05:5209:52
Sunrise06:2110:21
Sunset20:4000:40
Evening civil twilight21:0901:09

Current date and time
Zulu (UTC)  18-Jun-2019 01:29:49
Local (UTC-4)  17-Jun-2019 21:29:49
 
METAR
K2J3 
14nm S 
180115Z AUTO 16007KT 10SM SCT055 28/21 A3003 RMK AO2 T02810213
KHQU 
20nm N 
180115Z AUTO 23004KT 10SM CLR 28/21 A3002 RMK AO2 T02800212
KAGS 
23nm NE 
180053Z 16009KT 10SM CLR 30/21 A3000 RMK AO2 SLP157 T03000211
KDNL 
23nm NE 
180053Z AUTO 18007KT 10SM CLR 31/19 A3002 RMK AO2 SLP161 T03060194
KOKZ 
27nm SW 
180115Z AUTO 13003KT 10SM SCT055 26/17 A3001 RMK AO2 T02610168
TAF
KAGS 
23nm NE 
171739Z 1718/1818 19008KT P6SM VCSH SCT045 FM180100 16005KT P6SM SCT120 FM180500 VRB03KT P6SM SCT250 FM181000 VRB03KT P6SM SCT010 FM181400 19006KT P6SM SCT030
KDNL 
23nm NE 
171739Z 1718/1818 18008KT P6SM VCSH SCT045 FM180200 15005KT P6SM SCT120 FM181000 15004KT P6SM SCT010 FM181400 18006KT P6SM SCT030
NOTAMs
Click for the latest NOTAMs
NOTAMs are issued by the DoD/FAA and will open in a separate window not controlled by AirNav.

 

 
 

Would you like to see your business listed on this page?

 If your business provides an interesting product or service to pilots, flight crews, aircraft, or users of the Wrens Memorial Airport, you should consider listing it here.  To start the listing process, click on the button below
 
Add a business
 

Other Pages about Wrens Memorial Airport

jcmservices.net/wrensinf.htm
www.jcmservices.net/65j2.htm
 
Update a link
 
Copyright © AirNav, LLC. All rights reserved. Privacy Policy  Contact